Time;durP1;ratioP1;P1;durP2;ratioP2;P2;SDS_P1;SDS_P2;PMS_P1;PMS_P2;Temp;Humidity;BMP_temperature;BMP_pressure;BME280_temperature;BME280_humidity;BME280_pressure;Samples;Min_cycle;Max_cycle;Signal;HPM_P1;HPM_P2
2023/01/31 00:01:17;;;;;;;6.05;1.85;;;5.50;88.70;;;;;;5073466;28;20029;-75
2023/01/31 00:03:43;;;;;;;9.60;2.00;;;5.40;88.80;;;;;;5073350;28;20033;-75
2023/01/31 00:06:21;;;;;;;8.45;1.70;;;5.50;88.90;;;;;;5073403;28;20017;-75
2023/01/31 00:08:48;;;;;;;10.52;2.00;;;5.50;88.60;;;;;;5072313;28;20055;-75
2023/01/31 00:11:16;;;;;;;12.50;1.90;;;5.50;88.50;;;;;;5072402;28;20036;-75
2023/01/31 00:13:42;;;;;;;14.13;2.28;;;5.40;88.40;;;;;;5073310;28;20032;-75
2023/01/31 00:16:09;;;;;;;12.52;2.30;;;5.40;88.40;;;;;;5073310;28;20032;-75
2023/01/31 00:18:37;;;;;;;10.02;2.38;;;5.40;88.60;;;;;;5055855;28;20052;-75
2023/01/31 00:21:09;;;;;;;9.45;2.22;;;5.30;88.50;;;;;;5072206;28;20021;-75
2023/01/31 00:23:36;;;;;;;9.88;2.28;;;5.40;88.40;;;;;;5072271;28;20036;-75
2023/01/31 00:26:15;;;;;;;11.57;2.33;;;5.40;88.20;;;;;;5073042;28;20053;-75
2023/01/31 00:28:42;;;;;;;8.23;1.98;;;5.30;88.10;;;;;;5073145;28;20044;-75
2023/01/31 00:31:09;;;;;;;8.18;1.70;;;5.30;88.20;;;;;;5055554;28;20021;-74
2023/01/31 00:33:35;;;;;;;7.63;2.42;;;5.30;88.20;;;;;;5073068;28;20021;-75
2023/01/31 00:36:10;;;;;;;9.70;1.90;;;5.20;88.20;;;;;;5072121;28;20036;-75
2023/01/31 00:38:36;;;;;;;8.35;1.77;;;5.20;88.20;;;;;;5072055;28;20027;-75
2023/01/31 00:41:03;;;;;;;6.75;1.70;;;5.10;88.40;;;;;;5072024;28;20158;-74
2023/01/31 00:43:29;;;;;;;6.43;1.55;;;5.10;88.40;;;;;;5072989;28;20041;-75
2023/01/31 00:45:55;;;;;;;6.68;1.80;;;5.10;88.40;;;;;;5073000;28;20534;-75
2023/01/31 00:48:20;;;;;;;7.85;1.88;;;5.10;88.40;;;;;;5072295;28;20037;-75
2023/01/31 00:50:46;;;;;;;8.25;1.63;;;5.10;88.40;;;;;;5071995;28;20029;-75
2023/01/31 00:53:12;;;;;;;7.70;1.77;;;5.00;88.50;;;;;;5072934;28;20029;-75
2023/01/31 00:55:37;;;;;;;9.88;1.83;;;5.00;88.60;;;;;;5071968;28;20029;-74
2023/01/31 00:58:03;;;;;;;6.43;1.80;;;4.90;89.00;;;;;;5072866;28;20040;-75
2023/01/31 01:00:29;;;;;;;4.93;1.73;;;4.90;89.10;;;;;;5072886;28;20052;-75
2023/01/31 01:02:54;;;;;;;10.57;2.00;;;4.90;89.20;;;;;;5071806;28;20029;-75
2023/01/31 01:05:20;;;;;;;10.27;1.85;;;4.80;89.70;;;;;;5055107;28;20025;-75
2023/01/31 01:07:46;;;;;;;12.93;2.00;;;4.80;89.60;;;;;;5071718;28;20029;-75
2023/01/31 01:10:12;;;;;;;9.15;2.40;;;4.80;89.40;;;;;;5072750;28;20017;-75
2023/01/31 01:12:38;;;;;;;9.77;1.70;;;4.70;90.00;;;;;;5071803;28;20357;-74
2023/01/31 01:15:04;;;;;;;11.75;2.17;;;4.60;90.10;;;;;;5055115;28;20021;-75
2023/01/31 01:17:29;;;;;;;5.95;2.33;;;4.50;90.40;;;;;;5055256;28;20055;-75
2023/01/31 01:20:02;;;;;;;12.27;2.25;;;4.50;90.40;;;;;;5071654;28;20037;-75
2023/01/31 01:22:32;;;;;;;8.82;1.90;;;4.50;90.60;;;;;;5071932;28;20032;-74
2023/01/31 01:24:57;;;;;;;8.98;1.65;;;4.40;90.60;;;;;;5072476;28;20067;-75
2023/01/31 01:27:23;;;;;;;11.23;2.03;;;4.50;90.80;;;;;;5071676;28;20037;-75
2023/01/31 01:29:49;;;;;;;7.90;1.98;;;4.40;90.80;;;;;;5071623;28;20032;-75
2023/01/31 01:32:14;;;;;;;8.55;2.33;;;4.40;90.80;;;;;;5073384;28;20048;-75
2023/01/31 01:34:40;;;;;;;12.95;2.50;;;4.40;91.00;;;;;;5076168;28;20036;-75
2023/01/31 01:37:10;;;;;;;11.27;2.13;;;4.40;90.90;;;;;;5058566;28;20116;-75
2023/01/31 01:39:37;;;;;;;6.88;1.88;;;4.40;91.00;;;;;;5076190;28;20036;-75
2023/01/31 01:42:03;;;;;;;6.60;1.10;;;4.40;91.10;;;;;;5076193;28;20039;-74
2023/01/31 01:44:46;;;;;;;9.88;2.00;;;4.50;91.30;;;;;;5074933;28;20144;-75
2023/01/31 01:47:24;;;;;;;6.20;1.70;;;4.50;91.10;;;;;;5075008;28;20050;-75
2023/01/31 01:50:08;;;;;;;6.85;1.90;;;4.50;91.20;;;;;;5075916;28;20135;-74
2023/01/31 01:52:38;;;;;;;5.82;1.30;;;4.60;91.20;;;;;;5075919;28;20109;-75
2023/01/31 01:55:17;;;;;;;6.15;1.60;;;4.60;91.20;;;;;;5075983;28;20025;-75
2023/01/31 01:57:45;;;;;;;9.48;1.73;;;4.60;91.10;;;;;;5075836;28;20039;-75
2023/01/31 02:00:21;;;;;;;7.88;1.90;;;4.60;91.00;;;;;;5074704;28;20025;-74
2023/01/31 02:02:49;;;;;;;8.30;1.80;;;4.70;91.10;;;;;;5075752;28;20033;-75
2023/01/31 02:05:20;;;;;;;7.18;1.92;;;4.60;91.10;;;;;;5075542;28;20025;-75
2023/01/31 02:07:45;;;;;;;8.98;1.77;;;4.60;91.30;;;;;;5075558;28;20021;-75
2023/01/31 02:10:46;;;;;;;5.90;1.48;;;4.60;91.20;;;;;;5074602;28;20086;-75
2023/01/31 02:13:13;;;;;;;6.88;2.75;;;4.60;91.20;;;;;;5074334;28;20159;-75
2023/01/31 02:15:38;;;;;;;8.32;2.00;;;4.60;91.10;;;;;;5075407;28;20084;-75
2023/01/31 02:18:05;;;;;;;9.32;2.30;;;4.60;91.00;;;;;;5075391;28;20029;-75
2023/01/31 02:20:54;;;;;;;6.38;2.00;;;4.60;91.10;;;;;;5074305;28;20403;-75
2023/01/31 02:23:39;;;;;;;12.82;2.75;;;4.70;91.10;;;;;;5074326;28;20050;-75
2023/01/31 02:27:03;;;;;;;10.52;2.90;;;4.70;91.20;;;;;;5074132;28;20052;-75
2023/01/31 02:30:23;;;;;;;13.20;2.05;;;4.80;91.10;;;;;;5056718;28;20096;-75
2023/01/31 02:33:10;;;;;;;15.45;2.92;;;4.80;91.30;;;;;;4994501;28;20031;-75
2023/01/31 02:35:51;;;;;;;9.45;2.55;;;4.80;91.30;;;;;;5075076;28;20046;-74
2023/01/31 02:38:53;;;;;;;15.57;2.80;;;4.80;91.30;;;;;;5075236;28;20044;-75
2023/01/31 02:41:29;;;;;;;6.85;2.80;;;4.70;91.50;;;;;;5074935;28;20024;-75
2023/01/31 02:47:18;;;;;;;10.13;2.38;;;4.70;91.40;;;;;;5075092;28;20036;-74
2023/01/31 02:49:47;;;;;;;9.70;2.45;;;4.70;91.40;;;;;;5073868;28;20460;-75
2023/01/31 02:52:19;;;;;;;11.20;2.92;;;4.60;91.30;;;;;;5073744;28;20029;-74
2023/01/31 02:57:37;;;;;;;11.07;2.88;;;4.60;91.80;;;;;;5074907;28;19912;-75
2023/01/31 03:00:04;;;;;;;11.32;2.92;;;4.50;92.20;;;;;;5073580;28;20029;-75
2023/01/31 03:02:29;;;;;;;14.73;3.17;;;4.50;92.30;;;;;;5073594;28;20060;-75
2023/01/31 03:04:55;;;;;;;12.93;3.15;;;4.50;92.50;;;;;;5056767;28;20029;-75
2023/01/31 03:07:28;;;;;;;9.20;2.38;;;4.50;92.60;;;;;;5056851;28;20028;-75
2023/01/31 03:10:30;;;;;;;10.85;3.03;;;4.40;92.70;;;;;;5074342;28;20055;-75
2023/01/31 03:13:22;;;;;;;13.23;3.90;;;4.40;92.90;;;;;;5073335;28;20040;-75
2023/01/31 03:18:50;;;;;;;11.38;3.35;;;4.50;93.20;;;;;;5074493;28;20067;-75
2023/01/31 03:21:23;;;;;;;9.75;3.42;;;4.50;93.40;;;;;;5074147;28;20025;-75
2023/01/31 03:23:50;;;;;;;;;;;4.50;93.50;;;;;;5074531;28;20021;-75
2023/01/31 03:26:19;;;;;;;13.20;3.95;;;4.50;93.70;;;;;;5072910;28;19917;-75
2023/01/31 03:28:47;;;;;;;5.47;2.78;;;4.50;93.60;;;;;;5056838;28;20107;-75
2023/01/31 03:31:22;;;;;;;17.13;4.10;;;4.50;93.90;;;;;;5074005;28;20088;-75
2023/01/31 03:33:51;;;;;;;8.55;3.30;;;4.60;93.90;;;;;;5073961;28;20036;-75
2023/01/31 03:36:25;;;;;;;9.88;3.55;;;4.60;93.90;;;;;;5072970;28;20044;-74
2023/01/31 03:39:00;;;;;;;15.70;4.00;;;4.60;93.90;;;;;;5073922;28;20036;-75
2023/01/31 03:41:47;;;;;;;12.30;3.47;;;4.70;93.90;;;;;;5072895;28;20108;-75
2023/01/31 03:44:38;;;;;;;11.00;3.67;;;4.80;94.10;;;;;;5073731;28;20031;-75
2023/01/31 03:47:15;;;;;;;16.33;4.17;;;4.80;94.10;;;;;;5073216;28;20029;-75
2023/01/31 03:49:42;;;;;;;15.95;4.72;;;4.80;94.10;;;;;;5072713;28;20047;-75
2023/01/31 03:52:11;;;;;;;10.98;3.53;;;4.90;94.10;;;;;;5072709;28;20111;-75
2023/01/31 03:54:41;;;;;;;17.58;5.45;;;4.90;94.10;;;;;;5073237;28;20028;-75
2023/01/31 03:57:24;;;;;;;10.18;4.43;;;4.90;94.20;;;;;;5073610;28;20032;-75
2023/01/31 03:59:55;;;;;;;17.80;4.70;;;5.00;94.00;;;;;;5073593;28;20155;-75
2023/01/31 04:02:27;;;;;;;14.75;5.18;;;5.00;94.00;;;;;;5072546;28;20029;-75
2023/01/31 04:05:02;;;;;;;15.27;4.38;;;5.00;94.40;;;;;;5073443;28;20029;-75
2023/01/31 04:07:28;;;;;;;18.95;5.65;;;5.00;94.00;;;;;;5073581;28;20044;-75
2023/01/31 04:09:54;;;;;;;18.30;4.93;;;5.00;94.00;;;;;;5073310;28;20032;-75
2023/01/31 04:12:20;;;;;;;15.88;4.90;;;5.10;94.00;;;;;;5072436;28;20123;-75
2023/01/31 04:14:45;;;;;;;14.63;5.30;;;5.10;93.90;;;;;;5055689;28;20053;-75
2023/01/31 04:17:11;;;;;;;21.52;5.55;;;5.10;93.90;;;;;;5072235;28;20040;-75
2023/01/31 04:19:37;;;;;;;16.00;5.32;;;5.10;94.00;;;;;;5072213;28;20033;-75
2023/01/31 04:22:02;;;;;;;12.70;5.30;;;5.10;94.00;;;;;;5072289;28;20064;-75
2023/01/31 04:24:28;;;;;;;10.38;4.75;;;5.10;94.00;;;;;;5055404;28;20060;-75
2023/01/31 04:26:54;;;;;;;19.67;5.45;;;5.10;94.00;;;;;;5072327;28;20031;-75
2023/01/31 04:29:19;;;;;;;19.48;5.97;;;5.10;94.30;;;;;;5072200;28;20041;-74
2023/01/31 04:31:46;;;;;;;14.90;5.75;;;5.10;94.00;;;;;;5072211;28;20055;-74
2023/01/31 04:34:11;;;;;;;11.57;4.78;;;5.10;94.10;;;;;;5073237;28;20041;-74
2023/01/31 04:36:37;;;;;;;17.50;5.68;;;5.20;94.00;;;;;;5055478;28;20033;-74
2023/01/31 04:39:03;;;;;;;16.90;5.30;;;5.20;94.00;;;;;;5072031;28;20035;-74
2023/01/31 04:41:29;;;;;;;14.70;5.82;;;5.20;94.10;;;;;;5072140;28;20037;-75
2023/01/31 04:43:54;;;;;;;18.30;6.53;;;5.10;94.20;;;;;;5055330;28;20029;-74
2023/01/31 04:46:20;;;;;;;20.20;6.40;;;5.10;94.20;;;;;;5072992;28;20044;-74
2023/01/31 04:48:46;;;;;;;13.63;5.20;;;5.20;94.50;;;;;;5072102;28;20047;-75
2023/01/31 04:51:11;;;;;;;18.70;6.00;;;5.20;94.00;;;;;;5072963;28;20025;-74
2023/01/31 04:53:37;;;;;;;13.63;6.32;;;5.20;94.00;;;;;;5055356;28;20028;-74
2023/01/31 04:56:04;;;;;;;18.55;4.88;;;5.20;94.10;;;;;;5071892;28;20049;-74
2023/01/31 04:58:30;;;;;;;17.92;6.72;;;5.20;94.30;;;;;;5073066;28;20017;-74
2023/01/31 05:00:56;;;;;;;15.45;5.85;;;5.20;94.20;;;;;;5072849;28;20040;-75
2023/01/31 05:03:21;;;;;;;14.23;5.82;;;5.10;94.40;;;;;;5072832;28;20036;-74
2023/01/31 05:05:48;;;;;;;15.73;5.90;;;5.20;94.30;;;;;;5071865;28;20029;-74
2023/01/31 05:08:14;;;;;;;17.98;6.30;;;5.20;94.20;;;;;;5076412;28;20045;-74
2023/01/31 05:10:41;;;;;;;15.40;6.57;;;5.20;94.10;;;;;;5075700;28;20028;-74
2023/01/31 05:13:08;;;;;;;21.25;5.50;;;5.10;94.00;;;;;;5075722;28;20036;-74
2023/01/31 05:15:33;;;;;;;24.30;6.07;;;5.10;94.00;;;;;;5075632;28;20025;-74
2023/01/31 05:18:02;;;;;;;13.30;5.43;;;5.10;94.00;;;;;;5075636;28;20428;-74
2023/01/31 05:20:38;;;;;;;20.98;5.78;;;5.10;94.00;;;;;;5076616;28;20025;-74
2023/01/31 05:23:04;;;;;;;14.27;5.85;;;5.10;94.10;;;;;;5075461;28;20032;-75
2023/01/31 05:25:30;;;;;;;19.80;6.25;;;5.10;94.10;;;;;;5058442;28;20052;-74
2023/01/31 05:27:55;;;;;;;18.75;6.53;;;5.10;94.10;;;;;;5076329;28;20036;-74
2023/01/31 05:30:23;;;;;;;16.98;5.40;;;5.10;94.10;;;;;;5075318;28;20053;-74
2023/01/31 05:32:49;;;;;;;15.60;5.43;;;5.10;94.20;;;;;;5075220;28;20050;-74
2023/01/31 05:35:16;;;;;;;15.70;6.13;;;5.10;94.20;;;;;;5076232;28;20036;-74
2023/01/31 05:37:42;;;;;;;19.13;6.00;;;5.10;94.40;;;;;;5075170;28;20078;-74
2023/01/31 05:40:12;;;;;;;17.67;5.78;;;5.10;94.40;;;;;;5075081;28;20045;-75
2023/01/31 05:42:38;;;;;;;15.98;5.30;;;5.10;94.50;;;;;;5076116;28;20488;-75
2023/01/31 05:45:06;;;;;;;15.88;5.95;;;5.10;94.50;;;;;;5075934;28;20031;-75
2023/01/31 05:47:31;;;;;;;17.23;5.63;;;5.10;94.60;;;;;;5074976;28;20083;-75
2023/01/31 05:49:57;;;;;;;18.35;6.15;;;5.10;94.50;;;;;;5075929;28;20026;-75
2023/01/31 05:52:23;;;;;;;15.98;6.05;;;5.10;94.40;;;;;;5058293;28;20037;-75
2023/01/31 05:54:48;;;;;;;13.35;6.30;;;5.10;94.40;;;;;;5075875;28;20025;-75
2023/01/31 05:57:14;;;;;;;22.33;5.95;;;5.10;94.40;;;;;;5075910;28;20025;-75
2023/01/31 05:59:40;;;;;;;14.38;5.72;;;5.10;94.40;;;;;;5075790;28;20445;-74
2023/01/31 06:02:07;;;;;;;13.98;6.30;;;5.10;94.40;;;;;;5058026;28;20033;-75
2023/01/31 06:04:33;;;;;;;11.23;5.60;;;5.10;94.40;;;;;;5075515;28;20099;-75
2023/01/31 06:06:59;;;;;;;12.90;5.35;;;5.20;94.60;;;;;;5057910;28;20053;-75
2023/01/31 06:09:26;;;;;;;20.95;6.28;;;5.20;94.30;;;;;;5075464;28;20025;-75
2023/01/31 06:11:51;;;;;;;17.73;6.20;;;5.20;94.10;;;;;;5075576;28;20047;-75
2023/01/31 06:14:18;;;;;;;16.23;6.65;;;5.20;94.00;;;;;;5057881;28;20028;-74
2023/01/31 06:16:43;;;;;;;20.88;6.18;;;5.20;93.90;;;;;;5074438;28;20025;-75
2023/01/31 06:19:09;;;;;;;17.30;6.40;;;5.20;93.80;;;;;;5075183;28;20040;-75
2023/01/31 06:21:35;;;;;;;13.20;5.60;;;5.30;93.80;;;;;;5074494;28;20088;-74
2023/01/31 06:24:00;;;;;;;20.13;6.30;;;5.30;93.70;;;;;;5057567;28;20021;-74
2023/01/31 06:26:26;;;;;;;16.45;6.38;;;5.30;93.90;;;;;;5074106;28;20049;-75
2023/01/31 06:28:52;;;;;;;27.42;6.63;;;5.30;93.40;;;;;;5074200;28;20028;-75
2023/01/31 06:31:17;;;;;;;18.50;5.93;;;5.30;93.40;;;;;;5057676;28;20029;-75
2023/01/31 06:33:43;;;;;;;18.75;5.95;;;5.30;93.40;;;;;;5075086;28;20036;-74
2023/01/31 06:36:09;;;;;;;12.55;6.43;;;5.30;93.30;;;;;;5074075;28;20056;-74
2023/01/31 06:38:34;;;;;;;17.40;5.82;;;5.30;93.30;;;;;;5074966;28;20025;-75
2023/01/31 06:41:00;;;;;;;12.55;4.95;;;5.30;93.20;;;;;;5074961;28;20051;-74
2023/01/31 06:43:25;;;;;;;17.17;5.50;;;5.30;93.30;;;;;;5074939;28;20052;-74
2023/01/31 06:45:51;;;;;;;13.05;5.03;;;5.30;93.20;;;;;;5057179;28;20037;-75
2023/01/31 06:48:18;;;;;;;15.88;5.28;;;5.30;93.10;;;;;;5074823;28;20029;-74
2023/01/31 06:50:44;;;;;;;18.83;6.15;;;5.30;93.10;;;;;;5073782;28;20025;-75
2023/01/31 06:53:09;;;;;;;15.30;5.13;;;5.30;93.10;;;;;;5073896;28;20029;-75
2023/01/31 06:55:35;;;;;;;13.60;4.68;;;5.20;93.10;;;;;;5073819;28;20036;-75
2023/01/31 06:58:01;;;;;;;12.85;5.18;;;5.20;93.20;;;;;;5057088;28;20039;-75
2023/01/31 07:00:27;;;;;;;11.02;4.90;;;5.10;93.20;;;;;;5073593;28;20057;-75
2023/01/31 07:02:52;;;;;;;15.38;5.40;;;5.20;93.20;;;;;;5074568;28;20032;-74
2023/01/31 07:05:19;;;;;;;13.00;5.28;;;5.30;93.10;;;;;;5073430;28;20033;-75
2023/01/31 07:07:45;;;;;;;16.73;4.97;;;5.20;93.10;;;;;;5073390;28;20025;-75
2023/01/31 07:10:12;;;;;;;13.63;5.07;;;5.20;93.00;;;;;;5074583;28;20039;-74
2023/01/31 07:12:38;;;;;;;11.80;5.07;;;5.30;93.00;;;;;;5056825;28;20025;-74
2023/01/31 07:15:04;;;;;;;10.65;4.55;;;5.30;93.00;;;;;;5074340;28;20071;-74
2023/01/31 07:17:32;;;;;;;16.40;5.05;;;5.30;93.00;;;;;;5074329;28;20077;-74
2023/01/31 07:19:57;;;;;;;17.58;4.68;;;5.30;93.10;;;;;;5074225;28;20025;-74
2023/01/31 07:22:23;;;;;;;15.48;4.45;;;5.30;93.00;;;;;;5074184;28;20089;-74
2023/01/31 07:24:49;;;;;;;16.92;4.43;;;5.30;93.10;;;;;;5056340;28;20070;-74
2023/01/31 07:27:15;;;;;;;13.75;4.55;;;5.30;93.20;;;;;;5073175;28;20032;-75
2023/01/31 07:29:42;;;;;;;14.13;4.13;;;5.30;93.30;;;;;;5073364;28;20025;-74
2023/01/31 07:32:08;;;;;;;12.68;4.70;;;5.30;93.50;;;;;;5073999;28;20089;-75
2023/01/31 07:34:34;;;;;;;9.52;4.25;;;5.30;93.60;;;;;;5073013;28;20032;-75
2023/01/31 07:37:00;;;;;;;13.95;5.15;;;5.30;93.90;;;;;;5056287;28;20036;-75
2023/01/31 07:39:26;;;;;;;15.57;5.03;;;5.30;93.90;;;;;;5074009;28;20051;-75
2023/01/31 07:41:52;;;;;;;12.15;5.32;;;5.40;93.80;;;;;;5072819;28;20056;-75
2023/01/31 07:44:18;;;;;;;11.02;4.88;;;5.40;93.90;;;;;;5073705;28;20036;-75
2023/01/31 07:46:43;;;;;;;12.60;4.32;;;5.40;93.80;;;;;;5072787;28;20021;-74
2023/01/31 07:49:09;;;;;;;8.00;3.65;;;5.40;93.80;;;;;;5073675;28;20402;-75
2023/01/31 07:51:37;;;;;;;19.48;4.80;;;5.40;93.70;;;;;;5072708;28;20131;-74
2023/01/31 07:54:08;;;;;;;12.80;4.35;;;5.40;93.70;;;;;;5072683;28;20035;-74
2023/01/31 07:56:33;;;;;;;16.75;4.53;;;5.40;93.70;;;;;;5073636;28;20519;-74
2023/01/31 07:58:59;;;;;;;9.80;3.95;;;5.40;93.70;;;;;;5055957;28;20039;-75
2023/01/31 08:04:12;;;;;;;11.82;4.63;;;5.50;93.50;;;;;;5073640;28;20091;-75
2023/01/31 08:06:39;;;;;;;11.07;4.55;;;5.50;93.70;;;;;;5072413;28;20025;-75
2023/01/31 08:09:05;;;;;;;12.63;4.70;;;5.40;93.70;;;;;;5073349;28;20017;-75
2023/01/31 08:11:31;;;;;;;12.65;3.97;;;5.50;93.70;;;;;;5073348;28;20029;-74
2023/01/31 08:13:56;;;;;;;12.18;4.80;;;5.50;93.60;;;;;;5072332;28;20461;-74
2023/01/31 08:16:22;;;;;;;11.75;4.97;;;5.60;93.60;;;;;;5072429;28;20036;-74
2023/01/31 08:18:48;;;;;;;13.90;4.70;;;5.60;93.70;;;;;;5072344;28;20029;-74
2023/01/31 08:21:15;;;;;;;9.90;3.90;;;5.60;93.40;;;;;;5073276;28;20017;-74
2023/01/31 08:23:41;;;;;;;9.85;3.83;;;5.60;93.40;;;;;;5072099;28;20025;-74
2023/01/31 08:26:12;;;;;;;9.18;3.90;;;5.70;93.40;;;;;;5072914;28;20075;-75
2023/01/31 08:28:39;;;;;;;14.68;4.28;;;5.70;93.30;;;;;;5073374;28;20036;-75
2023/01/31 08:31:05;;;;;;;10.57;3.72;;;5.70;93.20;;;;;;5073141;28;20054;-75
2023/01/31 08:33:31;;;;;;;11.93;4.57;;;5.70;93.30;;;;;;5073110;28;20040;-75
2023/01/31 08:36:06;;;;;;;12.18;4.28;;;5.80;93.20;;;;;;5073086;28;20439;-75
2023/01/31 08:38:31;;;;;;;7.50;2.85;;;5.80;93.10;;;;;;5072254;28;20025;-75
2023/01/31 08:40:57;;;;;;;9.90;3.45;;;5.90;93.00;;;;;;5073751;28;20021;-75
2023/01/31 08:43:23;;;;;;;9.50;3.53;;;5.90;93.00;;;;;;5059511;28;20041;-75
2023/01/31 08:45:49;;;;;;;10.93;3.47;;;5.90;93.10;;;;;;5077110;28;20025;-75
2023/01/31 08:48:14;;;;;;;14.45;3.70;;;5.90;93.00;;;;;;5077117;28;20491;-75
2023/01/31 08:50:40;;;;;;;11.50;3.67;;;5.90;92.90;;;;;;5059436;28;20025;-75
2023/01/31 08:53:05;;;;;;;13.07;3.47;;;6.00;92.80;;;;;;5076082;28;20066;-75
2023/01/31 08:55:34;;;;;;;9.30;3.22;;;6.00;92.70;;;;;;5077000;28;20112;-75
2023/01/31 08:58:01;;;;;;;6.05;2.60;;;6.00;92.70;;;;;;5076976;28;20052;-75
2023/01/31 09:00:28;;;;;;;7.68;3.47;;;6.10;92.60;;;;;;5076902;28;20055;-75
2023/01/31 09:02:58;;;;;;;8.68;3.42;;;6.10;92.50;;;;;;5059410;28;20037;-75
2023/01/31 09:05:26;;;;;;;13.50;4.03;;;6.20;92.50;;;;;;5076773;28;20029;-75
2023/01/31 09:07:52;;;;;;;11.88;3.65;;;6.10;92.70;;;;;;5076681;28;20021;-75
2023/01/31 09:10:18;;;;;;;10.35;4.05;;;6.20;92.60;;;;;;5076686;28;20021;-75
2023/01/31 09:12:44;;;;;;;9.02;3.75;;;6.20;92.60;;;;;;5075730;28;20029;-75
2023/01/31 09:15:10;;;;;;;7.88;2.50;;;6.20;92.30;;;;;;5076641;28;20065;-75
2023/01/31 09:17:36;;;;;;;10.98;3.80;;;6.30;92.40;;;;;;5075634;28;20040;-75
2023/01/31 09:20:05;;;;;;;15.82;4.10;;;6.30;92.20;;;;;;5075471;28;20032;-75
2023/01/31 09:22:32;;;;;;;7.43;3.00;;;6.40;92.30;;;;;;5075598;28;20037;-75
2023/01/31 09:24:58;;;;;;;10.13;3.40;;;6.40;92.20;;;;;;5075300;28;20044;-75
2023/01/31 09:27:24;;;;;;;9.77;2.88;;;6.40;92.20;;;;;;5075437;28;20025;-75
2023/01/31 09:29:50;;;;;;;13.95;3.78;;;6.50;92.10;;;;;;5058697;28;20100;-75
2023/01/31 09:32:15;;;;;;;9.00;3.30;;;6.50;92.20;;;;;;5076290;28;20039;-75
2023/01/31 09:34:41;;;;;;;8.25;3.33;;;6.50;92.10;;;;;;5075318;28;20037;-75
2023/01/31 09:37:07;;;;;;;7.70;2.90;;;6.60;92.20;;;;;;5076225;28;20029;-75
2023/01/31 09:39:32;;;;;;;8.05;3.13;;;6.60;91.90;;;;;;5076144;28;20040;-75
2023/01/31 09:42:24;;;;;;;7.43;2.70;;;6.60;92.00;;;;;;5076129;28;20085;-75
2023/01/31 09:44:57;;;;;;;7.68;2.58;;;6.60;92.10;;;;;;5076181;28;20024;-75
2023/01/31 09:47:32;;;;;;;15.57;3.15;;;6.70;92.30;;;;;;5076026;28;20036;-75
2023/01/31 09:50:04;;;;;;;11.25;2.83;;;6.60;92.10;;;;;;5074973;28;20017;-75
2023/01/31 09:52:31;;;;;;;13.30;3.35;;;6.70;92.00;;;;;;5075406;28;20025;-75
2023/01/31 09:54:57;;;;;;;10.43;3.38;;;6.80;92.10;;;;;;5075877;28;20081;-74
2023/01/31 09:57:55;;;;;;;11.80;2.80;;;6.80;92.00;;;;;;5074986;28;20029;-75
2023/01/31 10:00:29;;;;;;;5.13;2.47;;;6.80;91.90;;;;;;5075784;28;20035;-75
2023/01/31 10:03:32;;;;;;;11.27;3.60;;;6.80;91.80;;;;;;5075810;28;20028;-75
2023/01/31 10:06:23;;;;;;;10.55;3.20;;;6.90;92.20;;;;;;5075647;28;20036;-74
2023/01/31 10:08:54;;;;;;;12.63;3.25;;;6.90;92.10;;;;;;5075717;28;20013;-74
2023/01/31 10:11:50;;;;;;;9.95;3.33;;;6.90;92.20;;;;;;5075552;28;20021;-74
2023/01/31 10:14:21;;;;;;;9.20;3.35;;;7.00;92.00;;;;;;5075572;28;20035;-75
2023/01/31 10:17:24;;;;;;;12.32;3.67;;;7.10;92.20;;;;;;5074472;28;20093;-75
2023/01/31 10:20:16;;;;;;;8.60;3.75;;;7.10;92.20;;;;;;5075239;28;20028;-75
2023/01/31 10:22:53;;;;;;;9.18;3.25;;;7.10;91.80;;;;;;5075457;28;20021;-75
2023/01/31 10:25:38;;;;;;;8.25;3.08;;;7.10;91.90;;;;;;5074078;28;20043;-75
2023/01/31 10:28:15;;;;;;;14.15;4.18;;;7.10;92.10;;;;;;5075222;28;20033;-75
2023/01/31 10:31:10;;;;;;;10.57;3.25;;;7.10;92.10;;;;;;5075266;28;20080;-75
2023/01/31 10:33:50;;;;;;;7.93;4.13;;;7.10;92.20;;;;;;5074253;28;20037;-75
2023/01/31 10:36:53;;;;;;;10.95;4.03;;;7.10;92.10;;;;;;5075140;28;20053;-75
2023/01/31 10:39:20;;;;;;;;;;;7.10;92.20;;;;;;5074376;28;20433;-75
2023/01/31 10:42:08;;;;;;;13.10;4.30;;;7.10;92.30;;;;;;5074933;28;19911;-75
2023/01/31 10:44:42;;;;;;;17.55;4.78;;;7.20;92.40;;;;;;5074824;28;20036;-75
2023/01/31 10:47:16;;;;;;;11.02;3.83;;;7.20;92.40;;;;;;5074967;28;20025;-75
2023/01/31 10:49:47;;;;;;;12.82;5.53;;;7.20;92.40;;;;;;5074790;28;20017;-75
2023/01/31 10:52:27;;;;;;;10.10;4.90;;;7.20;92.50;;;;;;5074803;28;20051;-75
2023/01/31 10:55:07;;;;;;;13.82;4.75;;;7.20;92.60;;;;;;5074770;28;20101;-75
2023/01/31 10:57:33;;;;;;;15.07;5.75;;;7.20;92.70;;;;;;5073754;28;20029;-75
2023/01/31 10:59:59;;;;;;;13.43;5.57;;;7.20;92.50;;;;;;5073842;28;20036;-75
2023/01/31 11:02:29;;;;;;;19.45;6.57;;;7.30;92.70;;;;;;5073694;28;20089;-75
2023/01/31 11:04:57;;;;;;;18.42;6.47;;;7.30;92.70;;;;;;5073449;28;20050;-76
2023/01/31 11:07:24;;;;;;;16.23;7.30;;;7.30;92.80;;;;;;5074373;28;20080;-75
2023/01/31 11:09:54;;;;;;;17.98;5.72;;;7.40;92.70;;;;;;5073383;28;20025;-75
2023/01/31 11:12:21;;;;;;;20.95;7.13;;;7.40;92.60;;;;;;5073545;28;20017;-75
2023/01/31 11:15:23;;;;;;;14.43;6.85;;;7.50;92.60;;;;;;5073284;28;20033;-75
2023/01/31 11:17:49;;;;;;;17.83;7.75;;;7.60;92.70;;;;;;5074303;28;20053;-74
2023/01/31 11:20:42;;;;;;;17.30;6.93;;;7.60;92.70;;;;;;5073378;28;20029;-75
2023/01/31 11:23:14;;;;;;;17.48;7.47;;;7.60;92.50;;;;;;5074179;28;20040;-75
2023/01/31 11:25:47;;;;;;;15.82;6.85;;;7.60;92.60;;;;;;5073660;28;20045;-75
2023/01/31 11:28:20;;;;;;;15.52;7.40;;;7.70;92.70;;;;;;5074050;28;20052;-75
2023/01/31 11:30:49;;;;;;;17.35;7.18;;;7.70;92.60;;;;;;5074036;28;20020;-75
2023/01/31 11:34:09;;;;;;;24.65;8.65;;;7.70;92.60;;;;;;5073960;28;20020;-75
2023/01/31 11:36:44;;;;;;;15.38;7.85;;;7.60;92.60;;;;;;5072021;28;20044;-75
2023/01/31 11:39:31;;;;;;;16.15;8.68;;;7.70;92.70;;;;;;5073905;28;20024;-75
2023/01/31 11:42:04;;;;;;;23.70;10.10;;;7.70;92.70;;;;;;5073871;28;20036;-75
2023/01/31 11:44:29;;;;;;;18.85;10.23;;;7.70;92.70;;;;;;5072724;28;20096;-75
2023/01/31 11:47:03;;;;;;;20.75;9.55;;;7.80;92.70;;;;;;5073705;28;20032;-75
2023/01/31 11:49:42;;;;;;;18.35;8.07;;;7.80;92.60;;;;;;5073935;28;20045;-75
2023/01/31 11:52:21;;;;;;;21.75;9.20;;;7.80;92.50;;;;;;5073387;28;20026;-75
2023/01/31 11:54:50;;;;;;;18.45;9.10;;;7.90;92.50;;;;;;5073626;28;20045;-75
2023/01/31 11:57:21;;;;;;;18.25;8.48;;;7.90;92.60;;;;;;5072544;28;20464;-75
2023/01/31 11:59:50;;;;;;;21.58;9.63;;;7.90;92.50;;;;;;5072697;28;20032;-75
2023/01/31 12:02:34;;;;;;;17.80;9.40;;;7.90;92.50;;;;;;5072502;28;20032;-75
2023/01/31 12:05:06;;;;;;;23.80;9.40;;;7.90;92.40;;;;;;5073416;28;20029;-75
2023/01/31 12:07:49;;;;;;;20.53;8.70;;;8.00;92.30;;;;;;5073527;28;20017;-75
2023/01/31 12:10:35;;;;;;;17.85;7.63;;;7.90;92.30;;;;;;5073564;28;20025;-75
2023/01/31 12:13:11;;;;;;;18.83;9.73;;;7.90;92.40;;;;;;5073485;28;20455;-75
2023/01/31 12:15:48;;;;;;;20.17;9.50;;;7.90;92.50;;;;;;5073046;28;20027;-75
2023/01/31 12:18:23;;;;;;;20.17;9.90;;;7.90;92.60;;;;;;5073360;28;20039;-75
2023/01/31 12:20:59;;;;;;;21.40;9.32;;;7.90;92.70;;;;;;5073278;28;20047;-75
2023/01/31 12:23:41;;;;;;;21.95;9.45;;;7.90;92.90;;;;;;5072210;28;20040;-75
2023/01/31 12:26:17;;;;;;;20.45;9.20;;;7.90;93.00;;;;;;5072941;28;20055;-75
2023/01/31 12:28:58;;;;;;;18.88;8.13;;;7.90;93.30;;;;;;5072301;28;20049;-75
2023/01/31 12:31:52;;;;;;;19.92;8.02;;;7.90;93.50;;;;;;5073134;28;20033;-75
2023/01/31 12:34:32;;;;;;;21.52;9.15;;;7.90;93.60;;;;;;5073145;28;20036;-75
2023/01/31 12:37:34;;;;;;;16.25;8.57;;;7.80;94.00;;;;;;5073107;28;20025;-75
2023/01/31 12:40:32;;;;;;;15.60;7.40;;;7.80;95.00;;;;;;5073279;28;20024;-75
2023/01/31 12:43:24;;;;;;;14.00;8.07;;;7.70;95.10;;;;;;5073047;28;20027;-75
2023/01/31 12:46:19;;;;;;;17.80;8.07;;;7.80;95.40;;;;;;5073076;28;20043;-75
2023/01/31 12:48:56;;;;;;;21.13;8.32;;;7.70;95.50;;;;;;5073163;28;20075;-75
2023/01/31 12:51:34;;;;;;;17.05;9.20;;;7.70;95.70;;;;;;5073020;28;20059;-75
2023/01/31 12:54:29;;;;;;;20.58;9.55;;;7.70;95.90;;;;;;5072937;28;20071;-75
2023/01/31 12:57:00;;;;;;;21.95;10.13;;;7.70;96.30;;;;;;5072902;28;20053;-75
2023/01/31 13:00:16;;;;;;;21.05;10.13;;;7.60;96.50;;;;;;5073000;28;20061;-75
2023/01/31 13:03:17;;;;;;;13.20;7.47;;;7.60;97.00;;;;;;5071977;28;20044;-75
2023/01/31 13:05:51;;;;;;;17.25;7.70;;;7.60;97.10;;;;;;5071725;28;20044;-75
2023/01/31 13:08:21;;;;;;;18.27;7.70;;;7.60;96.90;;;;;;5071759;28;20048;-75
2023/01/31 13:10:59;;;;;;;14.60;6.70;;;7.60;97.30;;;;;;5072778;28;20021;-75
2023/01/31 13:13:29;;;;;;;18.05;7.38;;;7.60;97.50;;;;;;5071808;28;20028;-75
2023/01/31 13:16:04;;;;;;;12.43;6.57;;;7.60;97.70;;;;;;5072727;28;20030;-75
2023/01/31 13:18:33;;;;;;;12.52;5.82;;;7.60;97.90;;;;;;5071767;28;20024;-75
2023/01/31 13:21:03;;;;;;;14.40;6.93;;;7.60;98.00;;;;;;5071607;28;20033;-75
2023/01/31 13:23:35;;;;;;;13.07;6.65;;;7.60;98.00;;;;;;5072630;28;20028;-74
2023/01/31 13:26:17;;;;;;;12.65;5.88;;;7.70;97.90;;;;;;5072273;28;20095;-75